sensor_id;sensor_type;location;lat;lon;timestamp;pressure;altitude;pressure_sealevel;temperature;humidity
15750;BME280;7976;52.526;13.326;2023-05-20T00:00:10;102181.31;;;13.71;67.55
15750;BME280;7976;52.526;13.326;2023-05-20T00:02:37;102179.56;;;13.70;67.84
15750;BME280;7976;52.526;13.326;2023-05-20T00:05:05;102174.41;;;13.67;67.76
15750;BME280;7976;52.526;13.326;2023-05-20T00:07:32;102177.13;;;13.64;68.00
15750;BME280;7976;52.526;13.326;2023-05-20T00:09:59;102178.13;;;13.58;68.21
15750;BME280;7976;52.526;13.326;2023-05-20T00:12:26;102176.50;;;13.54;68.58
15750;BME280;7976;52.526;13.326;2023-05-20T00:14:54;102175.81;;;13.48;68.81
15750;BME280;7976;52.526;13.326;2023-05-20T00:17:21;102169.81;;;13.43;69.05
15750;BME280;7976;52.526;13.326;2023-05-20T00:19:47;102169.00;;;13.39;69.37
15750;BME280;7976;52.526;13.326;2023-05-20T00:22:14;102168.22;;;13.36;69.69
15750;BME280;7976;52.526;13.326;2023-05-20T00:24:41;102168.25;;;13.34;69.78
15750;BME280;7976;52.526;13.326;2023-05-20T00:27:08;102167.47;;;13.31;69.82
15750;BME280;7976;52.526;13.326;2023-05-20T00:29:35;102167.56;;;13.28;70.08
15750;BME280;7976;52.526;13.326;2023-05-20T00:32:03;102164.97;;;13.25;70.63
15750;BME280;7976;52.526;13.326;2023-05-20T00:34:30;102166.81;;;13.21;70.70
15750;BME280;7976;52.526;13.326;2023-05-20T00:36:57;102166.84;;;13.20;70.91
15750;BME280;7976;52.526;13.326;2023-05-20T00:39:24;102167.81;;;13.17;71.22
15750;BME280;7976;52.526;13.326;2023-05-20T00:41:51;102172.28;;;13.14;71.48
15750;BME280;7976;52.526;13.326;2023-05-20T00:44:18;102173.25;;;13.10;71.84
15750;BME280;7976;52.526;13.326;2023-05-20T00:46:48;102173.41;;;13.04;72.28
15750;BME280;7976;52.526;13.326;2023-05-20T00:49:17;102176.06;;;13.01;72.56
15750;BME280;7976;52.526;13.326;2023-05-20T00:51:44;102173.44;;;13.01;72.96
15750;BME280;7976;52.526;13.326;2023-05-20T00:54:12;102171.72;;;13.00;73.02
15750;BME280;7976;52.526;13.326;2023-05-20T00:56:40;102170.94;;;12.95;73.27
15750;BME280;7976;52.526;13.326;2023-05-20T00:59:08;102167.47;;;12.94;73.43
15750;BME280;7976;52.526;13.326;2023-05-20T01:01:35;102167.47;;;12.94;73.63
15750;BME280;7976;52.526;13.326;2023-05-20T01:04:02;102164.91;;;12.93;73.81
15750;BME280;7976;52.526;13.326;2023-05-20T01:06:31;102162.28;;;12.91;74.11
15750;BME280;7976;52.526;13.326;2023-05-20T01:08:58;102155.38;;;12.87;74.19
15750;BME280;7976;52.526;13.326;2023-05-20T01:11:33;102159.75;;;12.87;74.39
15750;BME280;7976;52.526;13.326;2023-05-20T01:14:05;102158.06;;;12.86;74.51
15750;BME280;7976;52.526;13.326;2023-05-20T01:16:35;102160.72;;;12.84;74.65
15750;BME280;7976;52.526;13.326;2023-05-20T01:19:19;102153.69;;;12.85;74.68
15750;BME280;7976;52.526;13.326;2023-05-20T01:21:50;102154.59;;;12.84;74.80
15750;BME280;7976;52.526;13.326;2023-05-20T01:24:20;102159.03;;;12.80;75.00
15750;BME280;7976;52.526;13.326;2023-05-20T01:26:47;102158.16;;;12.80;75.19
15750;BME280;7976;52.526;13.326;2023-05-20T01:29:14;102159.91;;;12.81;75.30
15750;BME280;7976;52.526;13.326;2023-05-20T01:31:45;102155.59;;;12.78;75.22
15750;BME280;7976;52.526;13.326;2023-05-20T01:34:13;102152.09;;;12.79;75.36
15750;BME280;7976;52.526;13.326;2023-05-20T01:36:41;102145.03;;;12.80;75.22
15750;BME280;7976;52.526;13.326;2023-05-20T01:39:12;102145.13;;;12.77;75.34
15750;BME280;7976;52.526;13.326;2023-05-20T01:41:40;102145.94;;;12.79;75.47
15750;BME280;7976;52.526;13.326;2023-05-20T01:44:07;102141.63;;;12.76;75.56
15750;BME280;7976;52.526;13.326;2023-05-20T01:46:34;102149.53;;;12.75;75.70
15750;BME280;7976;52.526;13.326;2023-05-20T01:49:01;102146.97;;;12.72;75.94
15750;BME280;7976;52.526;13.326;2023-05-20T01:51:28;102139.09;;;12.72;75.96
15750;BME280;7976;52.526;13.326;2023-05-20T01:53:58;102139.94;;;12.74;76.00
15750;BME280;7976;52.526;13.326;2023-05-20T01:56:25;102146.06;;;12.73;76.01
15750;BME280;7976;52.526;13.326;2023-05-20T01:58:53;102139.09;;;12.72;76.26
15750;BME280;7976;52.526;13.326;2023-05-20T02:01:19;102142.56;;;12.74;76.26
15750;BME280;7976;52.526;13.326;2023-05-20T02:03:46;102132.94;;;12.73;76.43
15750;BME280;7976;52.526;13.326;2023-05-20T02:06:13;102128.53;;;12.75;76.33
15750;BME280;7976;52.526;13.326;2023-05-20T02:08:40;102125.00;;;12.76;76.23
15750;BME280;7976;52.526;13.326;2023-05-20T02:11:07;102129.41;;;12.75;76.11
15750;BME280;7976;52.526;13.326;2023-05-20T02:13:34;102134.69;;;12.74;76.32
15750;BME280;7976;52.526;13.326;2023-05-20T02:16:03;102132.06;;;12.74;76.36
15750;BME280;7976;52.526;13.326;2023-05-20T02:18:30;102135.56;;;12.73;76.27
15750;BME280;7976;52.526;13.326;2023-05-20T02:21:01;102126.88;;;12.71;76.31
15750;BME280;7976;52.526;13.326;2023-05-20T02:23:28;102133.97;;;12.67;76.51
15750;BME280;7976;52.526;13.326;2023-05-20T02:25:57;102137.50;;;12.64;76.39
15750;BME280;7976;52.526;13.326;2023-05-20T02:28:24;102132.25;;;12.64;76.82
15750;BME280;7976;52.526;13.326;2023-05-20T02:30:51;102135.81;;;12.63;76.82
15750;BME280;7976;52.526;13.326;2023-05-20T02:33:19;102134.03;;;12.64;76.78
15750;BME280;7976;52.526;13.326;2023-05-20T02:35:46;102130.53;;;12.63;76.65
15750;BME280;7976;52.526;13.326;2023-05-20T02:38:13;102135.88;;;12.60;76.69
15750;BME280;7976;52.526;13.326;2023-05-20T02:40:43;102125.41;;;12.57;76.76
15750;BME280;7976;52.526;13.326;2023-05-20T02:43:10;102130.75;;;12.54;76.98
15750;BME280;7976;52.526;13.326;2023-05-20T02:45:36;102140.41;;;12.52;76.83
15750;BME280;7976;52.526;13.326;2023-05-20T02:48:04;102138.69;;;12.51;77.07
15750;BME280;7976;52.526;13.326;2023-05-20T02:50:32;102140.53;;;12.48;77.13
15750;BME280;7976;52.526;13.326;2023-05-20T02:52:59;102143.19;;;12.46;76.83
15750;BME280;7976;52.526;13.326;2023-05-20T02:55:26;102143.31;;;12.42;77.28
15750;BME280;7976;52.526;13.326;2023-05-20T02:57:54;102129.38;;;12.38;77.53
15750;BME280;7976;52.526;13.326;2023-05-20T03:00:21;102136.41;;;12.36;77.46
15750;BME280;7976;52.526;13.326;2023-05-20T03:02:49;102140.78;;;12.36;77.68
15750;BME280;7976;52.526;13.326;2023-05-20T03:05:15;102132.16;;;12.31;77.61
15750;BME280;7976;52.526;13.326;2023-05-20T03:07:44;102134.81;;;12.29;77.60
15750;BME280;7976;52.526;13.326;2023-05-20T03:10:13;102140.13;;;12.26;77.61
15750;BME280;7976;52.526;13.326;2023-05-20T03:12:40;102144.56;;;12.23;78.28
15750;BME280;7976;52.526;13.326;2023-05-20T03:15:09;102150.69;;;12.23;78.11
15750;BME280;7976;52.526;13.326;2023-05-20T03:17:36;102156.81;;;12.22;78.16
15750;BME280;7976;52.526;13.326;2023-05-20T03:20:04;102161.19;;;12.23;77.93
15750;BME280;7976;52.526;13.326;2023-05-20T03:22:32;102153.28;;;12.25;77.92
15750;BME280;7976;52.526;13.326;2023-05-20T03:25:01;102156.75;;;12.27;78.09
15750;BME280;7976;52.526;13.326;2023-05-20T03:27:28;102156.75;;;12.27;77.86
15750;BME280;7976;52.526;13.326;2023-05-20T03:29:55;102150.63;;;12.26;77.83
15750;BME280;7976;52.526;13.326;2023-05-20T03:32:23;102151.53;;;12.25;77.85
15750;BME280;7976;52.526;13.326;2023-05-20T03:34:50;102162.91;;;12.24;78.03
15750;BME280;7976;52.526;13.326;2023-05-20T03:37:17;102160.34;;;12.21;78.01
15750;BME280;7976;52.526;13.326;2023-05-20T03:39:44;102170.03;;;12.19;78.16
15750;BME280;7976;52.526;13.326;2023-05-20T03:42:12;102166.53;;;12.20;78.15
15750;BME280;7976;52.526;13.326;2023-05-20T03:44:39;102168.22;;;12.21;78.14
15750;BME280;7976;52.526;13.326;2023-05-20T03:47:06;102170.00;;;12.21;78.17
15750;BME280;7976;52.526;13.326;2023-05-20T03:49:33;102163.03;;;12.20;78.25
15750;BME280;7976;52.526;13.326;2023-05-20T03:52:00;102172.63;;;12.21;78.15
15750;BME280;7976;52.526;13.326;2023-05-20T03:54:28;102173.47;;;12.21;78.00
15750;BME280;7976;52.526;13.326;2023-05-20T03:56:56;102168.22;;;12.21;78.15
15750;BME280;7976;52.526;13.326;2023-05-20T03:59:26;102176.06;;;12.23;78.05
15750;BME280;7976;52.526;13.326;2023-05-20T04:01:54;102172.56;;;12.24;78.18
15750;BME280;7976;52.526;13.326;2023-05-20T04:04:21;102167.38;;;12.21;77.89
15750;BME280;7976;52.526;13.326;2023-05-20T04:06:49;102170.03;;;12.19;78.05
15750;BME280;7976;52.526;13.326;2023-05-20T04:09:15;102167.44;;;12.18;78.13
15750;BME280;7976;52.526;13.326;2023-05-20T04:11:42;102170.94;;;12.18;78.22
15750;BME280;7976;52.526;13.326;2023-05-20T04:14:09;102155.16;;;12.20;78.42
15750;BME280;7976;52.526;13.326;2023-05-20T04:16:37;102164.75;;;12.21;78.19
15750;BME280;7976;52.526;13.326;2023-05-20T04:21:38;102159.59;;;12.16;78.46
15750;BME280;7976;52.526;13.326;2023-05-20T04:24:05;102160.44;;;12.18;78.37
15750;BME280;7976;52.526;13.326;2023-05-20T04:26:32;102161.19;;;12.23;78.42
15750;BME280;7976;52.526;13.326;2023-05-20T04:29:00;102152.38;;;12.26;78.46
15750;BME280;7976;52.526;13.326;2023-05-20T04:31:29;102148.84;;;12.28;78.12
15750;BME280;7976;52.526;13.326;2023-05-20T04:33:57;102157.56;;;12.30;78.12
15750;BME280;7976;52.526;13.326;2023-05-20T04:36:24;102149.69;;;12.30;78.08
15750;BME280;7976;52.526;13.326;2023-05-20T04:38:53;102159.28;;;12.31;78.38
15750;BME280;7976;52.526;13.326;2023-05-20T04:41:20;102155.75;;;12.32;78.26
15750;BME280;7976;52.526;13.326;2023-05-20T04:43:47;102159.25;;;12.33;78.42
15750;BME280;7976;52.526;13.326;2023-05-20T04:46:15;102159.28;;;12.31;78.33
15750;BME280;7976;52.526;13.326;2023-05-20T04:48:42;102178.50;;;12.33;78.50
15750;BME280;7976;52.526;13.326;2023-05-20T04:51:10;102169.69;;;12.34;78.52
15750;BME280;7976;52.526;13.326;2023-05-20T04:53:37;102171.44;;;12.35;78.60
15750;BME280;7976;52.526;13.326;2023-05-20T04:56:05;102161.84;;;12.33;78.63
15750;BME280;7976;52.526;13.326;2023-05-20T04:58:32;102157.41;;;12.36;78.62
15750;BME280;7976;52.526;13.326;2023-05-20T05:01:00;102154.69;;;12.41;78.73
15750;BME280;7976;52.526;13.326;2023-05-20T05:03:27;102159.88;;;12.44;78.30
15750;BME280;7976;52.526;13.326;2023-05-20T05:05:56;102153.75;;;12.43;78.42
15750;BME280;7976;52.526;13.326;2023-05-20T05:08:24;102155.41;;;12.47;78.69
15750;BME280;7976;52.526;13.326;2023-05-20T05:10:52;102153.63;;;12.49;78.34
15750;BME280;7976;52.526;13.326;2023-05-20T05:13:19;102153.63;;;12.49;78.36
15750;BME280;7976;52.526;13.326;2023-05-20T05:15:47;102147.56;;;12.46;78.34
15750;BME280;7976;52.526;13.326;2023-05-20T05:18:14;102150.22;;;12.44;78.82
15750;BME280;7976;52.526;13.326;2023-05-20T05:20:43;102149.38;;;12.42;79.09
15750;BME280;7976;52.526;13.326;2023-05-20T05:23:11;102149.38;;;12.42;79.39
15750;BME280;7976;52.526;13.326;2023-05-20T05:25:39;102148.47;;;12.45;79.19
15750;BME280;7976;52.526;13.326;2023-05-20T05:28:06;102148.47;;;12.45;79.32
15750;BME280;7976;52.526;13.326;2023-05-20T05:30:33;102147.59;;;12.44;79.69
15750;BME280;7976;52.526;13.326;2023-05-20T05:33:02;102149.38;;;12.44;79.77
15750;BME280;7976;52.526;13.326;2023-05-20T05:35:29;102153.72;;;12.45;79.92
15750;BME280;7976;52.526;13.326;2023-05-20T05:37:55;102149.34;;;12.45;79.90
15750;BME280;7976;52.526;13.326;2023-05-20T05:40:22;102151.03;;;12.48;79.88
15750;BME280;7976;52.526;13.326;2023-05-20T05:42:50;102150.91;;;12.52;79.99
15750;BME280;7976;52.526;13.326;2023-05-20T05:45:17;102147.38;;;12.55;80.29
15750;BME280;7976;52.526;13.326;2023-05-20T05:47:44;102148.09;;;12.61;80.21
15750;BME280;7976;52.526;13.326;2023-05-20T05:50:11;102152.34;;;12.67;80.18
15750;BME280;7976;52.526;13.326;2023-05-20T05:52:38;102159.19;;;12.74;80.02
15750;BME280;7976;52.526;13.326;2023-05-20T05:55:11;102150.28;;;12.80;79.76
15750;BME280;7976;52.526;13.326;2023-05-20T05:57:38;102144.16;;;12.81;79.84
15750;BME280;7976;52.526;13.326;2023-05-20T06:00:09;102135.38;;;12.82;79.86
15750;BME280;7976;52.526;13.326;2023-05-20T06:02:45;102133.56;;;12.84;79.82
15750;BME280;7976;52.526;13.326;2023-05-20T06:05:21;102130.88;;;12.87;79.85
15750;BME280;7976;52.526;13.326;2023-05-20T06:07:48;102134.28;;;12.90;79.65
15750;BME280;7976;52.526;13.326;2023-05-20T06:10:15;102139.47;;;12.93;79.62
15750;BME280;7976;52.526;13.326;2023-05-20T06:12:41;102129.81;;;12.94;79.83
15750;BME280;7976;52.526;13.326;2023-05-20T06:15:11;102128.78;;;13.01;79.75
15750;BME280;7976;52.526;13.326;2023-05-20T06:17:38;102120.84;;;13.04;79.70
15750;BME280;7976;52.526;13.326;2023-05-20T06:20:06;102129.47;;;13.09;79.60
15750;BME280;7976;52.526;13.326;2023-05-20T06:22:34;102125.06;;;13.11;79.95
15750;BME280;7976;52.526;13.326;2023-05-20T06:25:01;102133.72;;;13.14;79.74
15750;BME280;7976;52.526;13.326;2023-05-20T06:27:29;102134.53;;;13.16;79.51
15750;BME280;7976;52.526;13.326;2023-05-20T06:29:56;102134.56;;;13.15;79.50
15750;BME280;7976;52.526;13.326;2023-05-20T06:32:24;102135.59;;;13.09;79.78
15750;BME280;7976;52.526;13.326;2023-05-20T06:34:51;102130.41;;;13.06;80.02
15750;BME280;7976;52.526;13.326;2023-05-20T06:37:18;102135.66;;;13.06;80.02
15750;BME280;7976;52.526;13.326;2023-05-20T06:39:45;102144.34;;;13.10;79.92
15750;BME280;7976;52.526;13.326;2023-05-20T06:42:16;102143.44;;;13.11;80.18
15750;BME280;7976;52.526;13.326;2023-05-20T06:44:47;102142.44;;;13.15;79.99
15750;BME280;7976;52.526;13.326;2023-05-20T06:47:20;102141.50;;;13.19;80.02
15750;BME280;7976;52.526;13.326;2023-05-20T06:49:50;102133.44;;;13.25;79.92
15750;BME280;7976;52.526;13.326;2023-05-20T06:52:17;102135.88;;;13.32;79.70
15750;BME280;7976;52.526;13.326;2023-05-20T06:54:44;102135.84;;;13.34;79.54
15750;BME280;7976;52.526;13.326;2023-05-20T06:57:12;102136.66;;;13.36;79.38
15750;BME280;7976;52.526;13.326;2023-05-20T06:59:39;102133.94;;;13.39;79.53
15750;BME280;7976;52.526;13.326;2023-05-20T07:02:06;102132.25;;;13.38;79.43
15750;BME280;7976;52.526;13.326;2023-05-20T07:04:33;102132.25;;;13.38;79.78
15750;BME280;7976;52.526;13.326;2023-05-20T07:07:01;102131.19;;;13.43;79.54
15750;BME280;7976;52.526;13.326;2023-05-20T07:09:28;102138.94;;;13.49;79.40
15750;BME280;7976;52.526;13.326;2023-05-20T07:11:55;102131.84;;;13.53;79.51
15750;BME280;7976;52.526;13.326;2023-05-20T07:14:22;102132.47;;;13.61;79.03
15750;BME280;7976;52.526;13.326;2023-05-20T07:16:49;102119.16;;;13.67;79.10
15750;BME280;7976;52.526;13.326;2023-05-20T07:19:16;102122.38;;;13.78;78.97
15750;BME280;7976;52.526;13.326;2023-05-20T07:21:43;102129.84;;;13.92;78.64
15750;BME280;7976;52.526;13.326;2023-05-20T07:24:30;102125.19;;;14.01;78.32
15750;BME280;7976;52.526;13.326;2023-05-20T07:26:57;102125.09;;;14.04;77.72
15750;BME280;7976;52.526;13.326;2023-05-20T07:29:24;102118.88;;;14.07;77.58
15750;BME280;7976;52.526;13.326;2023-05-20T07:31:52;102119.75;;;14.07;77.63
15750;BME280;7976;52.526;13.326;2023-05-20T07:34:19;102117.13;;;14.07;77.54
15750;BME280;7976;52.526;13.326;2023-05-20T07:36:47;102114.34;;;14.12;77.36
15750;BME280;7976;52.526;13.326;2023-05-20T07:39:16;102111.53;;;14.18;77.24
15750;BME280;7976;52.526;13.326;2023-05-20T07:41:45;102099.91;;;14.26;77.05
15750;BME280;7976;52.526;13.326;2023-05-20T07:44:12;102106.63;;;14.36;77.03
15750;BME280;7976;52.526;13.326;2023-05-20T07:46:43;102109.72;;;14.49;76.45
15750;BME280;7976;52.526;13.326;2023-05-20T07:49:11;102110.38;;;14.55;76.23
15750;BME280;7976;52.526;13.326;2023-05-20T07:51:38;102111.09;;;14.60;75.52
15750;BME280;7976;52.526;13.326;2023-05-20T07:54:06;102103.97;;;14.64;75.43
15750;BME280;7976;52.526;13.326;2023-05-20T07:56:32;102105.34;;;14.75;75.18
15750;BME280;7976;52.526;13.326;2023-05-20T07:59:01;102101.72;;;14.79;74.55
15750;BME280;7976;52.526;13.326;2023-05-20T08:01:31;102097.31;;;14.80;74.56
15750;BME280;7976;52.526;13.326;2023-05-20T08:03:59;102094.69;;;14.80;74.19
15750;BME280;7976;52.526;13.326;2023-05-20T08:06:26;102086.78;;;14.80;74.18
15750;BME280;7976;52.526;13.326;2023-05-20T08:08:53;102091.84;;;14.86;74.07
15750;BME280;7976;52.526;13.326;2023-05-20T08:11:24;102099.50;;;14.93;73.83
15750;BME280;7976;52.526;13.326;2023-05-20T08:13:51;102093.91;;;15.02;73.67
15750;BME280;7976;52.526;13.326;2023-05-20T08:16:21;102091.69;;;15.17;73.47
15750;BME280;7976;52.526;13.326;2023-05-20T08:18:48;102088.66;;;15.27;72.48
15750;BME280;7976;52.526;13.326;2023-05-20T08:21:15;102089.31;;;15.34;72.71
15750;BME280;7976;52.526;13.326;2023-05-20T08:23:42;102087.38;;;15.39;72.15
15750;BME280;7976;52.526;13.326;2023-05-20T08:26:09;102078.47;;;15.43;72.06
15750;BME280;7976;52.526;13.326;2023-05-20T08:28:39;102079.22;;;15.46;71.83
15750;BME280;7976;52.526;13.326;2023-05-20T08:31:06;102077.09;;;15.56;71.85
15750;BME280;7976;52.526;13.326;2023-05-20T08:33:35;102067.66;;;15.73;71.62
15750;BME280;7976;52.526;13.326;2023-05-20T08:36:03;102072.38;;;15.88;70.98
15750;BME280;7976;52.526;13.326;2023-05-20T08:38:31;102065.78;;;16.00;70.29
15750;BME280;7976;52.526;13.326;2023-05-20T08:40:58;102064.69;;;16.05;69.78
15750;BME280;7976;52.526;13.326;2023-05-20T08:43:25;102060.84;;;16.14;69.49
15750;BME280;7976;52.526;13.326;2023-05-20T08:45:52;102056.22;;;16.19;69.25
15750;BME280;7976;52.526;13.326;2023-05-20T08:48:25;102056.97;;;16.22;69.15
15750;BME280;7976;52.526;13.326;2023-05-20T08:50:56;102055.84;;;16.28;68.87
15750;BME280;7976;52.526;13.326;2023-05-20T08:53:25;102059.31;;;16.30;68.86
15750;BME280;7976;52.526;13.326;2023-05-20T08:55:54;102057.22;;;16.38;68.90
15750;BME280;7976;52.526;13.326;2023-05-20T08:58:22;102056.97;;;16.44;68.23
15750;BME280;7976;52.526;13.326;2023-05-20T09:00:50;102064.75;;;16.49;68.29
15750;BME280;7976;52.526;13.326;2023-05-20T09:03:17;102065.63;;;16.49;68.00
15750;BME280;7976;52.526;13.326;2023-05-20T09:05:45;102058.69;;;16.45;68.06
15750;BME280;7976;52.526;13.326;2023-05-20T09:08:13;102059.91;;;16.37;68.17
15750;BME280;7976;52.526;13.326;2023-05-20T09:10:41;102060.16;;;16.30;68.34
15750;BME280;7976;52.526;13.326;2023-05-20T09:13:09;102066.53;;;16.25;68.85
15750;BME280;7976;52.526;13.326;2023-05-20T09:15:37;102074.88;;;16.14;68.76
15750;BME280;7976;52.526;13.326;2023-05-20T09:18:06;102058.59;;;16.03;69.30
15750;BME280;7976;52.526;13.326;2023-05-20T09:20:35;102070.09;;;16.02;69.64
15750;BME280;7976;52.526;13.326;2023-05-20T09:23:05;102065.72;;;16.01;69.86
15750;BME280;7976;52.526;13.326;2023-05-20T09:25:34;102061.47;;;15.97;69.44
15750;BME280;7976;52.526;13.326;2023-05-20T09:28:01;102058.72;;;16.00;69.74
15750;BME280;7976;52.526;13.326;2023-05-20T09:30:31;102049.53;;;16.10;70.01
15750;BME280;7976;52.526;13.326;2023-05-20T09:33:00;102051.00;;;16.17;69.70
15750;BME280;7976;52.526;13.326;2023-05-20T09:35:29;102051.50;;;16.27;69.23
15750;BME280;7976;52.526;13.326;2023-05-20T09:37:57;102055.72;;;16.31;69.12
15750;BME280;7976;52.526;13.326;2023-05-20T09:40:25;102048.78;;;16.28;69.08
15750;BME280;7976;52.526;13.326;2023-05-20T09:43:00;102052.19;;;16.32;69.30
15750;BME280;7976;52.526;13.326;2023-05-20T09:45:28;102051.19;;;16.34;69.29
15750;BME280;7976;52.526;13.326;2023-05-20T09:47:56;102051.19;;;16.34;68.93
15750;BME280;7976;52.526;13.326;2023-05-20T09:50:24;102047.75;;;16.33;69.28
15750;BME280;7976;52.526;13.326;2023-05-20T09:52:53;102052.19;;;16.32;69.27
15750;BME280;7976;52.526;13.326;2023-05-20T09:55:22;102054.00;;;16.30;69.38
15750;BME280;7976;52.526;13.326;2023-05-20T09:57:50;102051.50;;;16.27;69.67
15750;BME280;7976;52.526;13.326;2023-05-20T10:00:20;102055.84;;;16.28;69.33
15750;BME280;7976;52.526;13.326;2023-05-20T10:02:49;102054.00;;;16.30;69.67
15750;BME280;7976;52.526;13.326;2023-05-20T10:05:20;102055.56;;;16.36;69.33
15750;BME280;7976;52.526;13.326;2023-05-20T10:11:15;102049.03;;;16.46;68.74
15750;BME280;7976;52.526;13.326;2023-05-20T10:14:06;102041.19;;;16.43;68.27
15750;BME280;7976;52.526;13.326;2023-05-20T10:17:02;102048.25;;;16.42;68.79
15750;BME280;7976;52.526;13.326;2023-05-20T10:22:05;102039.28;;;16.46;69.06
15750;BME280;7976;52.526;13.326;2023-05-20T10:24:35;102040.25;;;16.44;69.28
15750;BME280;7976;52.526;13.326;2023-05-20T10:27:07;102042.97;;;16.42;69.30
15750;BME280;7976;52.526;13.326;2023-05-20T10:29:45;102035.69;;;16.49;69.37
15750;BME280;7976;52.526;13.326;2023-05-20T10:32:25;102043.28;;;16.56;69.11
15750;BME280;7976;52.526;13.326;2023-05-20T10:34:56;102029.81;;;16.62;68.85
15750;BME280;7976;52.526;13.326;2023-05-20T10:37:26;102034.13;;;16.65;68.75
15750;BME280;7976;52.526;13.326;2023-05-20T10:40:05;102026.25;;;16.63;68.91
15750;BME280;7976;52.526;13.326;2023-05-20T10:42:32;102029.56;;;16.68;68.58
15750;BME280;7976;52.526;13.326;2023-05-20T10:44:59;102020.31;;;16.78;68.64
15750;BME280;7976;52.526;13.326;2023-05-20T10:47:27;102020.41;;;16.97;68.32
15750;BME280;7976;52.526;13.326;2023-05-20T10:49:54;102013.59;;;17.11;67.58
15750;BME280;7976;52.526;13.326;2023-05-20T10:52:23;102011.34;;;17.22;67.38
15750;BME280;7976;52.526;13.326;2023-05-20T10:54:55;102009.88;;;17.35;67.13
15750;BME280;7976;52.526;13.326;2023-05-20T10:57:25;102005.38;;;17.37;66.78
15750;BME280;7976;52.526;13.326;2023-05-20T10:59:52;102006.28;;;17.36;66.79
15750;BME280;7976;52.526;13.326;2023-05-20T11:02:20;102004.50;;;17.37;66.59
15750;BME280;7976;52.526;13.326;2023-05-20T11:04:54;101997.34;;;17.39;66.72
15750;BME280;7976;52.526;13.326;2023-05-20T11:07:25;101991.19;;;17.38;66.67
15750;BME280;7976;52.526;13.326;2023-05-20T11:09:53;101991.84;;;17.43;66.52
15750;BME280;7976;52.526;13.326;2023-05-20T11:12:20;101987.38;;;17.45;66.29
15750;BME280;7976;52.526;13.326;2023-05-20T11:14:48;101985.38;;;17.50;66.45
15750;BME280;7976;52.526;13.326;2023-05-20T11:17:15;101983.69;;;17.49;65.79
15750;BME280;7976;52.526;13.326;2023-05-20T11:19:42;101978.88;;;17.58;65.67
15750;BME280;7976;52.526;13.326;2023-05-20T11:22:10;101980.19;;;17.68;65.40
15750;BME280;7976;52.526;13.326;2023-05-20T11:24:37;101978.53;;;17.84;65.01
15750;BME280;7976;52.526;13.326;2023-05-20T11:27:05;101975.53;;;17.91;64.53
15750;BME280;7976;52.526;13.326;2023-05-20T11:29:32;101981.66;;;17.92;64.26
15750;BME280;7976;52.526;13.326;2023-05-20T11:32:00;101978.25;;;17.90;64.62
15750;BME280;7976;52.526;13.326;2023-05-20T11:34:33;101975.53;;;17.91;64.32
15750;BME280;7976;52.526;13.326;2023-05-20T11:37:00;101981.66;;;17.92;64.09
15750;BME280;7976;52.526;13.326;2023-05-20T11:39:29;101970.44;;;17.87;63.93
15750;BME280;7976;52.526;13.326;2023-05-20T11:41:57;101977.59;;;17.85;64.18
15750;BME280;7976;52.526;13.326;2023-05-20T11:44:24;101976.38;;;17.92;63.84
15750;BME280;7976;52.526;13.326;2023-05-20T11:46:59;101970.22;;;18.10;63.25
15750;BME280;7976;52.526;13.326;2023-05-20T11:49:26;101970.53;;;18.21;63.38
15750;BME280;7976;52.526;13.326;2023-05-20T11:51:52;101971.81;;;18.31;62.97
15750;BME280;7976;52.526;13.326;2023-05-20T11:54:21;101962.16;;;18.30;63.12
15750;BME280;7976;52.526;13.326;2023-05-20T11:56:50;101960.00;;;18.19;63.01
15750;BME280;7976;52.526;13.326;2023-05-20T11:59:22;101962.34;;;18.25;63.31
15750;BME280;7976;52.526;13.326;2023-05-20T12:01:49;101955.91;;;18.31;63.10
15750;BME280;7976;52.526;13.326;2023-05-20T12:04:16;101950.31;;;18.37;62.89
15750;BME280;7976;52.526;13.326;2023-05-20T12:06:43;101957.38;;;18.55;62.34
15750;BME280;7976;52.526;13.326;2023-05-20T12:09:10;101937.44;;;18.81;62.16
15750;BME280;7976;52.526;13.326;2023-05-20T12:11:39;101933.59;;;19.03;61.44
15750;BME280;7976;52.526;13.326;2023-05-20T12:14:08;101934.75;;;19.15;60.79
15750;BME280;7976;52.526;13.326;2023-05-20T12:16:36;101942.00;;;19.11;60.37
15750;BME280;7976;52.526;13.326;2023-05-20T12:19:03;101926.44;;;19.05;60.53
15750;BME280;7976;52.526;13.326;2023-05-20T12:21:30;101932.66;;;19.04;60.78
15750;BME280;7976;52.526;13.326;2023-05-20T12:23:58;101925.72;;;19.02;60.94
15750;BME280;7976;52.526;13.326;2023-05-20T12:26:27;101923.78;;;19.05;61.04
15750;BME280;7976;52.526;13.326;2023-05-20T12:28:55;101922.94;;;19.20;60.81
15750;BME280;7976;52.526;13.326;2023-05-20T12:31:23;101926.91;;;19.29;60.42
15750;BME280;7976;52.526;13.326;2023-05-20T12:33:50;101915.28;;;19.31;60.23
15750;BME280;7976;52.526;13.326;2023-05-20T12:36:17;101911.53;;;19.35;59.98
15750;BME280;7976;52.526;13.326;2023-05-20T12:38:44;101906.59;;;19.28;60.34
15750;BME280;7976;52.526;13.326;2023-05-20T12:41:11;101896.84;;;19.28;60.37
15750;BME280;7976;52.526;13.326;2023-05-20T12:43:37;101904.19;;;19.23;60.77
15750;BME280;7976;52.526;13.326;2023-05-20T12:46:04;101902.28;;;19.10;61.07
15750;BME280;7976;52.526;13.326;2023-05-20T12:48:33;101900.81;;;19.04;60.96
15750;BME280;7976;52.526;13.326;2023-05-20T12:51:00;101894.56;;;19.05;61.13
15750;BME280;7976;52.526;13.326;2023-05-20T12:53:26;101886.72;;;19.19;61.29
15750;BME280;7976;52.526;13.326;2023-05-20T12:55:53;101875.78;;;19.41;60.91
15750;BME280;7976;52.526;13.326;2023-05-20T12:58:20;101880.03;;;19.60;59.73
15750;BME280;7976;52.526;13.326;2023-05-20T13:00:47;101881.03;;;19.58;59.31
15750;BME280;7976;52.526;13.326;2023-05-20T13:03:14;101884.03;;;19.52;59.76